Time;durP1;ratioP1;P1;durP2;ratioP2;P2;SDS_P1;SDS_P2;PMS_P1;PMS_P2;Temp;Humidity;BMP_temperature;BMP_pressure;BME280_temperature;BME280_humidity;BME280_pressure;Samples;Min_cycle;Max_cycle;Signal;HPM_P1;HPM_P2
2023/05/30 00:00:27;;;;;;;5.75;3.10;;;;;;;23.25;41.09;96230.88;5037703;28;20436;-33
2023/05/30 00:02:53;;;;;;;5.75;3.30;;;;;;;23.18;41.16;96223.13;5036999;28;20017;-33
2023/05/30 00:05:19;;;;;;;3.95;2.83;;;;;;;23.18;40.90;96231.44;5033998;28;20029;-33
2023/05/30 00:07:44;;;;;;;4.07;2.95;;;;;;;23.18;41.22;96227.91;5033789;28;20021;-32
2023/05/30 00:10:09;;;;;;;5.03;2.92;;;;;;;23.20;41.21;96228.91;5033885;28;20021;-33
2023/05/30 00:12:35;;;;;;;4.78;2.85;;;;;;;23.46;40.79;96230.47;5033417;28;20021;-33
2023/05/30 00:15:02;;;;;;;3.78;2.72;;;;;;;23.19;41.23;96226.66;5040706;28;20029;-33
2023/05/30 00:17:28;;;;;;;5.60;3.20;;;;;;;23.05;41.67;96225.00;5032023;28;20025;-33
2023/05/30 00:19:54;;;;;;;4.10;2.85;;;;;;;23.10;42.01;96218.69;5038930;28;20079;-33
2023/05/30 00:22:20;;;;;;;3.45;2.50;;;;;;;23.22;41.52;96223.63;5034115;28;20469;-33
2023/05/30 00:24:46;;;;;;;4.53;3.38;;;;;;;23.15;41.77;96217.88;5026339;28;20431;-33
2023/05/30 00:27:13;;;;;;;3.47;2.60;;;;;;;23.12;42.03;96219.66;5033384;28;20021;-32
2023/05/30 00:29:38;;;;;;;4.10;2.80;;;;;;;22.91;42.49;96222.06;5035108;28;20516;-33
2023/05/30 00:32:04;;;;;;;4.70;2.75;;;;;;;23.09;42.39;96219.94;5039169;28;20037;-33
2023/05/30 00:34:30;;;;;;;4.28;3.00;;;;;;;22.98;42.51;96220.78;5040551;28;20026;-34
2023/05/30 00:36:55;;;;;;;4.57;3.00;;;;;;;23.08;42.37;96219.19;5040714;28;20021;-34
2023/05/30 00:39:21;;;;;;;4.43;2.78;;;;;;;22.90;43.00;96228.88;5033414;28;20476;-33
2023/05/30 00:41:46;;;;;;;3.72;2.92;;;;;;;23.22;42.04;96220.09;5033790;28;20030;-34
2023/05/30 00:44:12;;;;;;;4.15;2.83;;;;;;;23.11;42.23;96215.41;5033436;28;20491;-33
2023/05/30 00:46:37;;;;;;;4.78;2.90;;;;;;;22.93;42.85;96213.28;5040604;28;20029;-33
2023/05/30 00:49:03;;;;;;;4.38;3.00;;;;;;;23.15;42.24;96206.81;5035574;28;20025;-33
2023/05/30 00:51:30;;;;;;;3.67;2.72;;;;;;;23.11;42.35;96201.59;5038195;28;20057;-33
2023/05/30 00:53:56;;;;;;;3.97;2.78;;;;;;;23.03;43.00;96210.94;5033931;28;20080;-33
2023/05/30 00:56:26;;;;;;;5.93;2.97;;;;;;;23.08;42.77;96210.91;5040038;28;20076;-33
2023/05/30 00:58:52;;;;;;;5.93;3.13;;;;;;;23.05;42.62;96213.94;5033164;28;20025;-33
2023/05/30 01:01:19;;;;;;;3.97;2.65;;;;;;;22.84;43.31;96214.34;5051139;28;20361;-33
2023/05/30 01:03:47;;;;;;;4.80;3.13;;;;;;;23.04;42.92;96210.44;5044266;28;20025;-34
2023/05/30 01:06:13;;;;;;;5.18;3.85;;;;;;;22.90;43.11;96214.28;5044333;28;20031;-32
2023/05/30 01:08:38;;;;;;;4.60;2.75;;;;;;;23.07;42.80;96214.19;5036910;28;20028;-33
2023/05/30 01:11:32;;;;;;;5.05;3.10;;;;;;;23.09;43.14;96214.41;5036402;28;20353;-33
2023/05/30 01:14:45;;;;;;;4.20;2.72;;;;;;;23.01;43.19;96211.44;5040228;28;20526;-33
2023/05/30 01:17:25;;;;;;;4.75;2.80;;;;;;;22.75;43.50;96220.13;5038860;28;20049;-34
2023/05/30 01:20:09;;;;;;;5.32;2.90;;;;;;;23.08;43.29;96208.13;5041649;28;20033;-33
2023/05/30 01:22:49;;;;;;;4.70;2.95;;;;;;;23.09;43.21;96204.09;5034675;28;20088;-33
2023/05/30 01:25:43;;;;;;;3.85;2.90;;;;;;;22.76;44.10;96215.38;5034680;28;20033;-32
2023/05/30 01:28:12;;;;;;;5.00;3.50;;;;;;;22.92;43.92;96217.31;5034137;28;20056;-33
2023/05/30 01:30:44;;;;;;;6.38;3.40;;;;;;;22.79;44.17;96215.13;5033597;28;20112;-33
2023/05/30 01:33:10;;;;;;;4.47;3.05;;;;;;;23.11;43.48;96217.44;5041271;28;20069;-33
2023/05/30 01:35:36;;;;;;;3.97;2.85;;;;;;;23.05;43.72;96213.94;5041405;28;20025;-33
2023/05/30 01:38:02;;;;;;;5.03;2.97;;;;;;;23.03;43.57;96214.44;5041083;28;20091;-33
2023/05/30 01:40:28;;;;;;;5.90;2.90;;;;;;;22.88;44.26;96212.03;5034256;28;20457;-34
2023/05/30 01:43:32;;;;;;;6.90;3.45;;;;;;;23.00;44.12;96211.97;5034369;28;20546;-32
2023/05/30 01:46:21;;;;;;;5.15;3.75;;;;;;;22.97;44.22;96216.53;5033401;28;20163;-33
2023/05/30 01:48:53;;;;;;;4.72;3.33;;;;;;;22.98;44.00;96220.78;5027548;28;20046;-33
2023/05/30 01:51:26;;;;;;;5.03;3.70;;;;;;;23.01;44.00;96228.03;5037978;28;20099;-33
2023/05/30 01:54:01;;;;;;;6.68;3.25;;;;;;;22.77;44.78;96222.41;5037842;28;20046;-33
2023/05/30 01:56:28;;;;;;;6.40;3.60;;;;;;;22.85;44.62;96223.41;5041843;28;20043;-33
2023/05/30 01:58:55;;;;;;;6.32;3.80;;;;;;;23.04;44.10;96226.25;5035999;28;20048;-33
2023/05/30 02:01:26;;;;;;;5.75;3.80;;;;;;;22.80;44.67;96221.41;5036058;28;20461;-33
2023/05/30 02:03:52;;;;;;;5.78;3.67;;;;;;;22.97;44.11;96224.81;5035787;28;20021;-34
2023/05/30 02:06:17;;;;;;;5.70;3.40;;;;;;;23.04;44.16;96220.72;5041785;28;20385;-32
2023/05/30 02:08:43;;;;;;;6.28;3.42;;;;;;;22.88;44.46;96217.56;5043144;28;20025;-33
2023/05/30 02:11:08;;;;;;;8.18;3.80;;;;;;;22.93;44.59;96225.09;5034921;28;20083;-34
2023/05/30 02:13:34;;;;;;;5.30;3.30;;;;;;;22.93;44.66;96218.81;5035681;28;20021;-34
2023/05/30 02:15:59;;;;;;;4.85;3.22;;;;;;;22.83;44.87;96218.38;5031726;28;20018;-33
2023/05/30 02:18:27;;;;;;;6.38;3.42;;;;;;;22.81;44.86;96222.91;5035908;28;20116;-34
2023/05/30 02:20:53;;;;;;;5.63;3.33;;;;;;;22.84;44.81;96211.59;5040082;28;20024;-33
2023/05/30 02:23:19;;;;;;;4.22;3.17;;;;;;;22.84;44.84;96219.13;5038005;28;20087;-33
2023/05/30 02:25:45;;;;;;;4.22;3.40;;;;;;;22.85;44.88;96215.09;5042777;28;20423;-33
2023/05/30 02:28:10;;;;;;;4.50;3.65;;;;;;;22.80;44.64;96218.63;5035430;28;20473;-33
2023/05/30 02:30:36;;;;;;;5.05;3.42;;;;;;;22.77;44.65;96223.16;5035741;28;20457;-33
2023/05/30 02:33:02;;;;;;;5.22;3.50;;;;;;;22.77;44.67;96217.66;5035499;28;20024;-33
2023/05/30 02:35:27;;;;;;;7.25;3.70;;;;;;;22.65;44.81;96220.97;5042174;28;20104;-33
2023/05/30 02:37:53;;;;;;;4.35;3.80;;;;;;;22.67;44.94;96213.66;5049894;28;20104;-33
2023/05/30 02:40:18;;;;;;;5.10;3.60;;;;;;;22.82;44.44;96210.59;5040625;28;20492;-33
2023/05/30 02:42:44;;;;;;;6.80;3.60;;;;;;;22.84;44.58;96210.84;5044365;28;20415;-33
2023/05/30 02:45:09;;;;;;;5.38;4.10;;;;;;;22.83;44.87;96218.38;5034942;28;20417;-33
2023/05/30 02:47:35;;;;;;;5.22;3.58;;;;;;;22.70;44.78;96215.41;5035162;28;20080;-33
2023/05/30 02:50:00;;;;;;;5.50;3.88;;;;;;;22.87;44.65;96209.81;5036916;28;20028;-33
2023/05/30 02:52:26;;;;;;;5.05;3.50;;;;;;;22.83;44.39;96214.84;5040364;28;20018;-34
2023/05/30 02:54:51;;;;;;;5.28;3.55;;;;;;;22.85;44.51;96207.56;5049187;28;20048;-33
2023/05/30 02:57:19;;;;;;;7.63;3.97;;;;;;;22.92;44.30;96212.53;5034862;28;20026;-33
2023/05/30 02:59:44;;;;;;;6.05;3.70;;;;;;;22.73;44.66;96210.88;5034658;28;20112;-33
2023/05/30 03:02:10;;;;;;;5.97;3.58;;;;;;;22.74;44.42;96212.38;5034676;28;20113;-33
2023/05/30 03:04:36;;;;;;;5.82;3.90;;;;;;;22.79;44.55;96215.13;5035020;28;20389;-33
2023/05/30 03:07:02;;;;;;;5.35;3.67;;;;;;;22.73;44.35;96200.56;5042095;28;20017;-33
2023/05/30 03:09:27;;;;;;;5.80;3.80;;;;;;;22.77;44.10;96208.59;5036340;28;20028;-33
2023/05/30 03:11:53;;;;;;;5.85;3.90;;;;;;;22.70;44.42;96200.84;5038896;28;20025;-32
2023/05/30 03:14:18;;;;;;;5.50;3.80;;;;;;;22.68;44.16;96198.59;5042089;28;20104;-33
2023/05/30 03:16:44;;;;;;;5.03;3.55;;;;;;;22.59;44.53;96201.66;5034624;28;20492;-33
2023/05/30 03:19:09;;;;;;;6.03;3.85;;;;;;;22.70;44.46;96211.91;5041020;28;20033;-33
2023/05/30 03:21:37;;;;;;;7.65;3.53;;;;;;;22.73;44.14;96202.59;5034196;28;20025;-33
2023/05/30 03:24:03;;;;;;;4.78;3.60;;;;;;;22.71;43.82;96207.88;5035926;28;20037;-33
2023/05/30 03:26:29;;;;;;;7.00;4.10;;;;;;;22.72;44.13;96198.31;5041964;28;20127;-33
2023/05/30 03:28:54;;;;;;;5.93;3.65;;;;;;;;;;5037891;28;20027;-33
2023/05/30 03:31:20;;;;;;;7.25;3.95;;;;;;;22.54;44.55;96197.66;5037477;28;20030;-33
2023/05/30 03:33:46;;;;;;;3.92;3.20;;;;;;;;;;5034578;28;20523;-33
2023/05/30 03:36:11;;;;;;;6.55;3.85;;;;;;;22.73;43.85;96199.81;5039015;28;20031;-33
2023/05/30 03:38:37;;;;;;;5.72;3.95;;;;;;;22.69;44.06;96204.84;5036259;28;20065;-33
2023/05/30 03:41:03;;;;;;;6.05;3.72;;;;;;;22.82;43.97;96208.56;5040965;28;20027;-33
2023/05/30 03:43:28;;;;;;;5.60;4.00;;;;;;;22.81;43.79;96198.03;5039642;28;20379;-32
2023/05/30 03:45:54;;;;;;;5.80;3.85;;;;;;;22.56;44.16;96200.66;5034320;28;20079;-33
2023/05/30 03:48:19;;;;;;;6.32;4.28;;;;;;;22.72;43.86;96204.59;5033820;28;20083;-33
2023/05/30 03:50:45;;;;;;;8.00;4.10;;;;;;;22.74;44.10;96204.09;5033841;28;20021;-33
2023/05/30 03:53:10;;;;;;;7.65;4.72;;;;;;;22.62;44.02;96200.66;5034245;28;20397;-33
2023/05/30 03:55:36;;;;;;;7.60;4.10;;;;;;;22.61;44.35;96198.38;5039043;28;20033;-33
2023/05/30 03:58:01;;;;;;;8.02;5.13;;;;;;;22.71;44.16;96208.63;5035958;28;20025;-33
2023/05/30 04:00:26;;;;;;;10.75;4.57;;;;;;;22.57;44.20;96196.63;5040577;28;20453;-33
2023/05/30 04:02:53;;;;;;;7.82;4.50;;;;;;;22.43;44.72;96194.97;5033798;28;20536;-32
2023/05/30 04:05:19;;;;;;;5.75;4.25;;;;;;;22.52;44.15;96199.44;5034107;28;20104;-33
2023/05/30 04:07:44;;;;;;;5.43;3.70;;;;;;;22.61;44.50;96199.13;5033931;28;20112;-33
2023/05/30 04:10:10;;;;;;;8.30;3.95;;;;;;;22.47;44.44;96189.91;5034008;28;20037;-33
2023/05/30 04:12:35;;;;;;;5.75;3.72;;;;;;;22.56;44.43;96199.91;5044137;28;20047;-34
2023/05/30 04:15:00;;;;;;;8.20;3.63;;;;;;;22.55;44.31;96196.41;5044132;28;20515;-32
2023/05/30 04:17:26;;;;;;;5.25;3.72;;;;;;;22.50;44.23;96201.97;5035363;28;20076;-33
2023/05/30 04:19:52;;;;;;;5.85;3.85;;;;;;;22.63;44.53;96201.38;5039630;28;20017;-33
2023/05/30 04:22:18;;;;;;;6.32;3.97;;;;;;;22.54;44.21;96194.91;5033361;28;20021;-33
2023/05/30 04:24:43;;;;;;;5.55;3.70;;;;;;;22.57;44.14;96198.66;5030152;28;20021;-32
2023/05/30 04:27:09;;;;;;;5.28;3.47;;;;;;;22.65;44.29;96201.59;5033700;28;20028;-32
2023/05/30 04:29:35;;;;;;;5.13;3.67;;;;;;;22.55;44.37;96196.41;5040848;28;20109;-34
2023/05/30 04:32:01;;;;;;;6.32;3.55;;;;;;;22.53;44.72;96198.91;5040837;28;20060;-33
2023/05/30 04:34:26;;;;;;;5.70;3.90;;;;;;;22.71;44.19;96200.31;5034462;28;20100;-32
2023/05/30 04:36:56;;;;;;;6.07;3.80;;;;;;;22.55;44.34;96201.16;5045040;28;20048;-33
2023/05/30 04:39:22;;;;;;;6.22;4.05;;;;;;;22.47;44.43;96200.97;5037448;28;20026;-33
2023/05/30 04:41:49;;;;;;;5.80;3.92;;;;;;;;;;5037587;28;20032;-33
2023/05/30 04:44:15;;;;;;;5.38;3.67;;;;;;;22.74;44.16;96206.84;5041834;28;20025;-33
2023/05/30 04:46:46;;;;;;;6.93;3.45;;;;;;;22.67;44.09;96204.63;5040023;28;20025;-33
2023/05/30 04:49:14;;;;;;;7.63;3.63;;;;;;;22.67;44.06;96207.38;5030797;28;20036;-34
2023/05/30 04:51:40;;;;;;;7.07;3.60;;;;;;;22.85;43.77;96204.03;5037373;28;20079;-33
2023/05/30 04:54:05;;;;;;;7.13;3.83;;;;;;;22.63;44.42;96209.66;5039372;28;20067;-33
2023/05/30 04:56:31;;;;;;;6.22;3.72;;;;;;;22.60;44.33;96205.94;5042148;28;20021;-33
2023/05/30 04:58:56;;;;;;;5.00;3.42;;;;;;;22.75;44.15;96209.06;5037458;28;20435;-33
2023/05/30 05:01:23;;;;;;;4.70;3.60;;;;;;;22.79;44.22;96203.31;5044203;28;20029;-33
2023/05/30 05:03:49;;;;;;;5.13;3.50;;;;;;;22.44;44.58;96201.22;5036987;28;20076;-33
2023/05/30 05:06:15;;;;;;;5.97;3.60;;;;;;;22.74;44.34;96204.09;5037311;28;20377;-33
2023/05/30 05:08:41;;;;;;;7.03;4.07;;;;;;;22.60;44.59;96203.16;5037092;28;20026;-33
2023/05/30 05:11:07;;;;;;;6.00;4.00;;;;;;;22.57;44.32;96210.47;5037061;28;20067;-33
2023/05/30 05:13:33;;;;;;;6.38;4.00;;;;;;;22.50;44.57;96210.97;5047182;28;20535;-33
2023/05/30 05:16:00;;;;;;;6.22;3.70;;;;;;;22.53;44.43;96212.72;5040891;28;20029;-33
2023/05/30 05:18:26;;;;;;;6.45;3.58;;;;;;;22.57;44.65;96210.47;5050355;28;20079;-33
2023/05/30 05:20:52;;;;;;;10.40;4.50;;;;;;;22.54;44.97;96205.94;5036678;28;20029;-33
2023/05/30 05:23:17;;;;;;;6.50;4.20;;;;;;;22.70;44.51;96201.59;5036525;28;20021;-33
2023/05/30 05:25:43;;;;;;;6.50;3.70;;;;;;;22.72;44.82;96203.84;5037056;28;20389;-33
2023/05/30 05:28:09;;;;;;;7.15;3.80;;;;;;;22.73;44.85;96208.88;5036503;28;20032;-33
2023/05/30 05:30:34;;;;;;;8.00;3.90;;;;;;;22.75;44.51;96208.34;5044696;28;20021;-34
2023/05/30 05:33:00;;;;;;;6.10;3.72;;;;;;;22.69;44.50;96211.13;5040475;28;20017;-33
2023/05/30 05:35:25;;;;;;;7.28;3.88;;;;;;;22.83;44.59;96203.78;5039473;28;20472;-33
2023/05/30 05:37:51;;;;;;;6.85;3.75;;;;;;;22.63;44.81;96212.41;5043940;28;20032;-33
2023/05/30 05:40:16;;;;;;;5.45;3.83;;;;;;;22.60;44.90;96216.97;5036061;28;20027;-32
2023/05/30 05:42:44;;;;;;;8.70;3.83;;;;;;;22.78;44.42;96212.88;5036512;28;20017;-33
2023/05/30 05:45:10;;;;;;;6.10;3.83;;;;;;;22.44;45.81;96217.81;5036119;28;20476;-33
2023/05/30 05:47:35;;;;;;;6.65;3.72;;;;;;;22.76;44.76;96215.38;5042817;28;20034;-32
2023/05/30 05:50:01;;;;;;;5.38;3.83;;;;;;;22.67;45.00;96224.72;5042384;28;20021;-33
2023/05/30 05:52:27;;;;;;;5.70;3.67;;;;;;;22.77;45.25;96212.13;5034680;28;20036;-33
2023/05/30 05:54:52;;;;;;;7.20;3.75;;;;;;;22.70;45.00;96209.13;5035661;28;20125;-33
2023/05/30 05:57:18;;;;;;;5.60;3.97;;;;;;;22.72;44.91;96215.66;5035968;28;20105;-34
2023/05/30 05:59:44;;;;;;;7.00;4.03;;;;;;;22.88;44.78;96214.06;5042010;28;20013;-33
2023/05/30 06:02:10;;;;;;;4.88;3.80;;;;;;;22.95;45.13;96221.81;5036233;28;20033;-33
2023/05/30 06:04:35;;;;;;;7.90;3.50;;;;;;;22.88;45.30;96216.81;5041846;28;20022;-33
2023/05/30 06:07:00;;;;;;;8.52;3.78;;;;;;;22.82;45.20;96221.66;5042918;28;20025;-33
2023/05/30 06:09:30;;;;;;;6.60;3.75;;;;;;;22.78;45.02;96224.69;5036137;28;20021;-33
2023/05/30 06:11:57;;;;;;;5.63;3.83;;;;;;;23.05;44.96;96233.31;5035791;28;20084;-33
2023/05/30 06:14:22;;;;;;;5.95;3.58;;;;;;;22.83;45.29;96231.44;5043527;28;20029;-33
2023/05/30 06:16:48;;;;;;;6.57;4.03;;;;;;;22.86;45.28;96224.91;5035753;28;20048;-33
2023/05/30 06:19:13;;;;;;;5.18;3.42;;;;;;;22.89;45.17;96226.63;5049457;28;20075;-33
2023/05/30 06:21:39;;;;;;;8.90;3.78;;;;;;;22.98;45.05;96225.56;5038314;28;20067;-33
2023/05/30 06:24:05;;;;;;;6.00;3.40;;;;;;;23.01;45.33;96233.56;5039946;28;20033;-33
2023/05/30 06:26:31;;;;;;;5.93;3.60;;;;;;;22.97;45.04;96226.84;5041318;28;20021;-33
2023/05/30 06:28:57;;;;;;;5.38;3.55;;;;;;;23.01;45.26;96233.56;5035264;28;20112;-33
2023/05/30 06:31:23;;;;;;;6.65;3.80;;;;;;;23.22;44.89;96237.47;5034762;28;20580;-33
2023/05/30 06:33:48;;;;;;;5.50;3.75;;;;;;;23.11;44.84;96247.84;5035996;28;20025;-33
2023/05/30 06:36:14;;;;;;;5.28;3.72;;;;;;;22.94;45.10;96236.91;5048243;28;20032;-34
2023/05/30 06:38:40;;;;;;;5.20;3.55;;;;;;;23.14;44.90;96249.56;5044255;28;20035;-33
2023/05/30 06:41:05;;;;;;;6.70;4.18;;;;;;;23.12;45.29;96247.31;5034958;28;20022;-33
2023/05/30 06:43:30;;;;;;;6.97;3.70;;;;;;;23.16;45.00;96247.78;5035142;28;20496;-33
2023/05/30 06:45:56;;;;;;;5.88;3.95;;;;;;;23.12;45.25;96244.56;5035350;28;20079;-33
2023/05/30 06:48:21;;;;;;;4.18;3.70;;;;;;;23.17;45.16;96252.06;5039757;28;20028;-33
2023/05/30 06:50:47;;;;;;;7.25;3.72;;;;;;;23.19;45.37;96257.09;5036736;28;20091;-33
2023/05/30 06:53:12;;;;;;;6.15;3.88;;;;;;;23.24;45.29;96256.31;5042309;28;20049;-33
2023/05/30 06:55:38;;;;;;;6.32;3.70;;;;;;;23.23;45.64;96261.09;5034900;28;20443;-33
2023/05/30 06:58:05;;;;;;;19.88;6.15;;;;;;;23.35;45.02;96267.28;5034829;28;20057;-33
2023/05/30 07:00:31;;;;;;;165.00;21.08;;;;;;;23.17;45.78;96259.63;5041788;28;20025;-33
2023/05/30 07:02:56;;;;;;;81.22;13.38;;;;;;;23.26;45.58;96256.53;5034718;28;20021;-33
2023/05/30 07:05:23;;;;;;;198.18;19.35;;;;;;;23.33;45.59;96255.22;5040809;28;20148;-32
2023/05/30 07:07:48;;;;;;;243.43;30.00;;;;;;;23.24;45.66;96259.06;5040334;28;20017;-33
2023/05/30 07:10:14;;;;;;;154.00;18.52;;;;;;;23.26;45.29;96257.28;5036647;28;20021;-33
2023/05/30 07:12:39;;;;;;;161.70;20.27;;;;;;;23.27;45.70;96261.53;5040892;28;20056;-33
2023/05/30 07:15:08;;;;;;;147.75;16.63;;;;;;;23.39;45.16;96264.22;5034438;28;20021;-32
2023/05/30 07:17:34;;;;;;;98.40;13.57;;;;;;;23.46;44.99;96258.13;5043384;28;20538;-33
2023/05/30 07:20:00;;;;;;;80.70;12.43;;;;;;;23.39;45.28;96258.69;5038496;28;20026;-33
2023/05/30 07:22:26;;;;;;;69.88;12.55;;;;;;;23.46;44.97;96261.66;5041790;28;20109;-33
2023/05/30 07:24:51;;;;;;;56.85;9.30;;;;;;;23.45;45.18;96256.63;5041461;28;20022;-33
2023/05/30 07:27:18;;;;;;;56.28;9.30;;;;;;;23.53;44.99;96257.59;5042319;28;20056;-32
2023/05/30 07:29:43;;;;;;;33.20;6.85;;;;;;;23.52;44.69;96256.09;5034783;28;20036;-33
2023/05/30 07:32:10;;;;;;;39.65;7.65;;;;;;;23.54;45.01;96259.84;5034238;28;20025;-33
2023/05/30 07:34:36;;;;;;;31.70;7.60;;;;;;;23.57;44.90;96261.59;5034737;28;20376;-33
2023/05/30 07:37:01;;;;;;;24.70;5.85;;;;;;;23.54;45.25;96259.09;5045418;28;20021;-34
2023/05/30 07:39:26;;;;;;;17.95;5.68;;;;;;;23.63;44.90;96261.53;5037825;28;20032;-33
2023/05/30 07:41:52;;;;;;;17.55;5.22;;;;;;;23.53;44.64;96258.34;5040187;28;20037;-32
2023/05/30 07:44:17;;;;;;;13.25;4.40;;;;;;;23.46;45.03;96266.44;5041005;28;20101;-33
2023/05/30 07:46:43;;;;;;;12.75;4.57;;;;;;;23.37;45.00;96272.31;5033808;28;20025;-33
2023/05/30 07:49:08;;;;;;;8.65;3.88;;;;;;;23.74;44.37;96266.94;5033764;28;20025;-34
2023/05/30 07:51:35;;;;;;;13.93;5.22;;;;;;;23.70;44.71;96274.81;5034044;28;20017;-33
2023/05/30 07:54:00;;;;;;;13.77;4.60;;;;;;;23.56;44.65;96267.63;5041135;28;20510;-32
2023/05/30 07:56:26;;;;;;;12.38;4.20;;;;;;;23.65;44.77;96270.06;5044245;28;20041;-33
2023/05/30 07:58:51;;;;;;;9.25;4.00;;;;;;;23.76;44.42;96274.75;5036322;28;20024;-33
2023/05/30 08:01:16;;;;;;;8.73;4.45;;;;;;;23.82;44.33;96267.16;5041032;28;20029;-33
2023/05/30 08:03:42;;;;;;;9.23;4.53;;;;;;;23.65;44.77;96261.75;5033447;28;20030;-32
2023/05/30 08:06:08;;;;;;;13.23;5.25;;;;;;;23.59;44.63;96261.81;5034115;28;20025;-33
2023/05/30 08:08:33;;;;;;;9.02;4.57;;;;;;;23.76;44.25;96258.13;5031897;28;20068;-34
2023/05/30 08:10:58;;;;;;;9.45;4.78;;;;;;;23.55;44.55;96255.81;5040600;28;20448;-32
2023/05/30 08:13:28;;;;;;;10.38;4.40;;;;;;;23.72;44.37;96252.91;5040862;28;20017;-33
2023/05/30 08:15:54;;;;;;;7.65;4.43;;;;;;;23.77;44.51;96265.94;5033502;28;20026;-33
2023/05/30 08:18:21;;;;;;;12.43;6.03;;;;;;;23.73;44.08;96259.94;5040898;28;20029;-32
2023/05/30 08:20:47;;;;;;;9.15;5.65;;;;;;;23.75;44.04;96253.84;5033235;28;20052;-34
2023/05/30 08:23:12;;;;;;;10.52;5.38;;;;;;;23.52;44.69;96265.16;5033506;28;20032;-33
2023/05/30 08:25:42;;;;;;;11.13;5.43;;;;;;;23.59;44.35;96270.13;5033943;28;20393;-33
2023/05/30 08:28:10;;;;;;;11.43;5.22;;;;;;;23.82;44.01;96264.38;5031241;28;20022;-32
2023/05/30 08:30:35;;;;;;;7.07;4.80;;;;;;;23.71;44.30;96267.25;5040651;28;20018;-33
2023/05/30 08:33:01;;;;;;;6.68;4.40;;;;;;;23.72;44.64;96263.97;5033523;28;20155;-34
2023/05/30 08:35:27;;;;;;;7.50;4.30;;;;;;;23.74;44.59;96269.72;5033241;28;20032;-33
2023/05/30 08:37:52;;;;;;;10.48;3.97;;;;;;;23.77;44.70;96263.16;5041389;28;20469;-33
2023/05/30 08:40:19;;;;;;;6.65;4.13;;;;;;;23.78;44.74;96266.69;5033374;28;20022;-33
2023/05/30 08:42:44;;;;;;;8.07;4.20;;;;;;;23.66;45.09;96266.03;5040457;28;20095;-32
2023/05/30 08:45:11;;;;;;;7.97;3.97;;;;;;;23.75;44.53;96270.47;5037178;28;20044;-34
2023/05/30 08:47:36;;;;;;;6.60;3.40;;;;;;;23.83;44.69;96269.41;5035602;28;20108;-33
2023/05/30 08:50:04;;;;;;;7.03;3.72;;;;;;;23.82;44.66;96273.44;5033424;28;20994;-33
2023/05/30 08:52:31;;;;;;;6.10;3.47;;;;;;;23.94;44.22;96266.53;5033506;28;21391;-33
2023/05/30 08:55:07;;;;;;;4.63;3.58;;;;;;;23.73;44.67;96265.47;5041116;28;20045;-33
2023/05/30 08:57:57;;;;;;;6.70;3.70;;;;;;;23.77;44.44;96262.41;5033398;28;20014;-34
2023/05/30 09:00:23;;;;;;;5.07;3.35;;;;;;;23.71;44.80;96262.47;5025864;28;20018;-33
2023/05/30 09:02:55;;;;;;;8.05;3.67;;;;;;;23.83;44.94;96263.88;5040502;28;20017;-33
2023/05/30 09:05:21;;;;;;;5.50;3.80;;;;;;;23.74;45.42;96261.41;5033641;28;20082;-33
2023/05/30 09:07:48;;;;;;;7.28;3.75;;;;;;;23.75;45.23;96254.59;5033137;28;20393;-33
2023/05/30 09:10:15;;;;;;;7.32;3.80;;;;;;;23.93;44.64;96269.81;5033356;28;20024;-33
2023/05/30 09:12:43;;;;;;;5.35;3.63;;;;;;;23.87;44.82;96258.03;5031956;28;20392;-33
2023/05/30 09:15:09;;;;;;;5.10;3.63;;;;;;;23.86;45.00;96254.50;5040451;28;20040;-33
2023/05/30 09:17:34;;;;;;;6.60;3.72;;;;;;;23.84;44.28;96262.59;5035902;28;20024;-33
2023/05/30 09:20:00;;;;;;;6.38;3.40;;;;;;;23.86;43.98;96257.28;5037757;28;20487;-33
2023/05/30 09:22:29;;;;;;;5.07;3.25;;;;;;;23.91;43.42;96252.94;5036762;28;20021;-33
2023/05/30 09:24:56;;;;;;;5.45;3.65;;;;;;;23.86;43.31;96257.28;5036755;28;20379;-33
2023/05/30 09:27:22;;;;;;;4.70;3.20;;;;;;;23.89;43.44;96261.78;5036528;28;20025;-33
2023/05/30 09:29:48;;;;;;;4.93;3.67;;;;;;;23.77;43.43;96257.63;5036860;28;20028;-34
2023/05/30 09:32:13;;;;;;;6.00;3.45;;;;;;;23.86;42.91;96262.81;5043709;28;20409;-33
2023/05/30 09:34:39;;;;;;;4.70;3.00;;;;;;;23.85;42.40;96261.34;5044236;28;20025;-33
2023/05/30 09:37:05;;;;;;;4.45;3.30;;;;;;;23.88;42.54;96256.75;5050122;28;20368;-33
2023/05/30 09:39:32;;;;;;;6.28;3.60;;;;;;;23.92;42.48;96260.75;5034896;28;20028;-33
2023/05/30 09:41:58;;;;;;;6.18;3.92;;;;;;;23.81;43.05;96266.41;5036843;28;20017;-34
2023/05/30 09:44:23;;;;;;;4.93;3.40;;;;;;;23.89;42.42;96270.09;5042183;28;20381;-33
2023/05/30 09:46:54;;;;;;;6.25;3.00;;;;;;;23.95;42.52;96265.25;5038578;28;20033;-34
2023/05/30 09:49:20;;;;;;;5.00;3.17;;;;;;;23.96;42.61;96261.22;5041801;28;20032;-33
2023/05/30 09:51:45;;;;;;;5.05;3.10;;;;;;;23.92;42.31;96255.22;5036025;28;20021;-32
2023/05/30 09:54:12;;;;;;;4.78;3.28;;;;;;;23.93;42.68;96258.72;5035791;28;20057;-33
2023/05/30 09:56:39;;;;;;;4.55;3.08;;;;;;;23.98;42.68;96264.19;5035877;28;20108;-33
2023/05/30 09:59:07;;;;;;;5.20;3.33;;;;;;;23.98;42.73;96258.66;5036995;28;20073;-33
2023/05/30 10:01:38;;;;;;;4.47;3.20;;;;;;;24.01;42.16;96256.88;5048462;28;20025;-33
2023/05/30 10:04:22;;;;;;;5.40;3.63;;;;;;;23.97;42.24;96256.44;5043384;28;20021;-33
2023/05/30 10:06:52;;;;;;;4.50;2.90;;;;;;;23.97;42.13;96243.34;5035701;28;20146;-33
2023/05/30 10:09:22;;;;;;;4.22;3.35;;;;;;;24.04;41.65;96247.53;5035939;28;20037;-33
2023/05/30 10:11:48;;;;;;;6.00;3.20;;;;;;;24.08;41.27;96250.75;5035583;28;20016;-33
2023/05/30 10:14:14;;;;;;;4.88;2.88;;;;;;;24.00;41.06;96249.81;5035781;28;20025;-33
2023/05/30 10:16:51;;;;;;;6.00;3.25;;;;;;;24.04;40.61;96249.53;5039336;28;20342;-33
2023/05/30 10:19:24;;;;;;;3.63;2.90;;;;;;;24.07;40.89;96254.06;5035766;28;20809;-32
2023/05/30 10:21:52;;;;;;;;;;;;;;;24.00;41.74;96242.25;5042260;28;20109;-33
2023/05/30 10:24:19;;;;;;;5.75;3.30;;;;;;;24.00;41.62;96245.03;5035268;28;20442;-33
2023/05/30 10:26:54;;;;;;;4.65;3.15;;;;;;;24.01;41.17;96240.25;5036092;28;20017;-34
2023/05/30 10:29:23;;;;;;;4.53;2.83;;;;;;;24.07;41.21;96237.44;5035393;28;20484;-33
2023/05/30 10:31:52;;;;;;;5.93;3.00;;;;;;;24.08;40.95;96236.16;5041731;28;20037;-34
2023/05/30 10:34:24;;;;;;;5.38;3.25;;;;;;;24.07;40.91;96240.19;5042406;28;20021;-35
2023/05/30 10:36:51;;;;;;;4.72;2.95;;;;;;;24.03;40.08;96237.72;5035631;28;20112;-33
2023/05/30 10:39:32;;;;;;;6.72;2.97;;;;;;;24.15;39.94;96235.56;5035391;28;20025;-33
2023/05/30 10:42:22;;;;;;;4.55;3.40;;;;;;;24.09;40.28;96229.34;5042402;28;20062;-33
2023/05/30 10:44:54;;;;;;;5.43;3.05;;;;;;;24.13;40.40;96240.88;5035664;28;20377;-34
2023/05/30 10:47:25;;;;;;;5.45;3.00;;;;;;;24.14;40.65;96234.06;5035232;28;20033;-33
2023/05/30 10:49:54;;;;;;;4.78;3.10;;;;;;;24.08;39.82;96222.31;5042001;28;20086;-33
2023/05/30 10:52:30;;;;;;;4.20;2.60;;;;;;;24.14;40.21;96220.22;5038874;28;20028;-33
2023/05/30 10:54:55;;;;;;;4.00;2.85;;;;;;;24.13;40.02;96218.72;5044261;28;20056;-33
2023/05/30 10:57:23;;;;;;;4.60;2.95;;;;;;;24.11;39.94;96224.78;5035012;28;20096;-33
2023/05/30 10:59:49;;;;;;;3.90;2.90;;;;;;;24.12;39.87;96217.22;5041704;28;20027;-33
2023/05/30 11:02:20;;;;;;;3.70;2.90;;;;;;;24.23;40.03;96209.53;5035185;28;20067;-34
2023/05/30 11:04:50;;;;;;;5.45;3.00;;;;;;;24.16;40.36;96212.13;5034902;28;20350;-33
2023/05/30 11:07:16;;;;;;;6.68;3.50;;;;;;;24.18;40.49;96215.13;5041748;28;20539;-33
2023/05/30 11:10:00;;;;;;;4.90;2.75;;;;;;;24.14;40.10;96203.59;5041796;28;20029;-33
2023/05/30 11:12:25;;;;;;;3.90;3.10;;;;;;;24.12;40.34;96200.59;5042208;28;20025;-33
2023/05/30 11:14:56;;;;;;;4.75;3.10;;;;;;;24.22;40.39;96198.97;5034503;28;20025;-33
2023/05/30 11:17:31;;;;;;;6.35;3.30;;;;;;;24.15;40.63;96202.31;5035636;28;20030;-33
2023/05/30 11:20:14;;;;;;;4.82;3.10;;;;;;;24.21;41.03;96195.44;5039654;28;20024;-33
2023/05/30 11:23:00;;;;;;;9.68;3.90;;;;;;;24.24;40.59;96196.44;5048477;28;20033;-33
2023/05/30 11:25:27;;;;;;;4.63;2.83;;;;;;;24.18;40.77;96190.19;5041767;28;20071;-32
2023/05/30 11:28:06;;;;;;;18.45;4.28;;;;;;;24.15;41.28;96191.97;5034415;28;20056;-33
2023/05/30 11:30:32;;;;;;;16.73;4.25;;;;;;;24.21;41.66;96180.84;5034364;28;20026;-33
2023/05/30 11:32:59;;;;;;;11.77;3.53;;;;;;;24.20;41.19;96184.88;5034526;28;20021;-33
2023/05/30 11:35:28;;;;;;;9.52;3.47;;;;;;;24.22;41.22;96182.34;5034510;28;20112;-33